M I D A S
Marine Information and Data Acquisition System
Tripno 631 of the Zeeleeuw from 2004-01-21 07:43:08 to 2004-01-21 15:52:35
Back to CruiseResearch ActivitiesStationsMapUnderway DataData graphs

EquipmentUnitsComments
TimeDGPSUTC
LatitudeDGPSDM.mWGS84
LongitudeDGPSDM.mWGS84
SpeedMeteo Stationm/sRelative wind speed
DirectionMeteo StationdegRelative wind direction
TemperatureMeteo Stationdeg CelciusAir temperature
PressureMeteo StationPaAtmospheric pressure
HumidityMeteo Station%Relative humidity
Missing or incorrect values are displayed as -999
Metereological data collected by the RV Zeeleeuw from 2004-01-21 07:43:08 to 2004-01-21 15:52:35
Time Latitude Longitude Speed Direction Temperature Pressure Humidity
2004-01-21 07:44 51°14.038 2°55.479 1.8 113 3.4 101840 76
2004-01-21 07:45 51°14.154 2°55.392 2.4 113 3.4 101840 76
2004-01-21 07:46 51°14.29 2°55.219 1 236 3.4 101840 76
2004-01-21 07:47 51°14.381 2°54.957 4.1 309 3.4 101830 76
2004-01-21 07:48 51°14.391 2°54.613 6.7 322 3.5 101820 76
2004-01-21 07:49 51°14.306 2°54.28 10 323 3.5 101810 76
2004-01-21 07:50 51°14.174 2°53.943 10.6 323 3.5 101800 75
2004-01-21 07:51 51°14.043 2°53.625 8.3 325 3.5 101790 75
2004-01-21 07:52 51°13.933 2°53.298 10.6 329 3.5 101800 75
2004-01-21 07:53 51°13.817 2°52.95 8.8 328 3.4 101800 75
2004-01-21 07:54 51°13.701 2°52.598 8.4 323 3.5 101800 75
2004-01-21 07:55 51°13.586 2°52.248 8.6 328 3.5 101810 76
2004-01-21 07:56 51°13.474 2°51.897 8.9 329 3.5 101800 76
2004-01-21 07:57 51°13.359 2°51.551 8.5 322 3.5 101790 76
2004-01-21 07:58 51°13.239 2°51.193 8.7 323 3.5 101790 77
2004-01-21 07:59 51°13.118 2°50.844 9 323 3.6 101800 77
2004-01-21 08:00 51°12.998 2°50.503 8.8 319 3.6 101800 77
2004-01-21 08:01 51°12.876 2°50.156 8 317 3.6 101800 78
2004-01-21 08:02 51°12.753 2°49.802 9.2 317 3.6 101790 78
2004-01-21 08:03 51°12.633 2°49.455 9.3 319 3.6 101790 78
2004-01-21 08:04 51°12.513 2°49.112 8.8 326 3.6 101800 78
2004-01-21 08:05 51°12.401 2°48.779 7.9 324 3.6 101800 78
2004-01-21 08:06 51°12.298 2°48.414 8.1 322 3.6 101810 78
2004-01-21 08:07 51°12.195 2°48.046 7.8 321 3.6 101810 79
2004-01-21 08:08 51°12.105 2°47.679 7.3 319 3.6 101810 79
2004-01-21 08:09 51°12.021 2°47.307 7.9 320 3.7 101780 79
2004-01-21 08:10 51°11.941 2°46.929 7.7 321 3.7 101810 79
2004-01-21 08:11 51°11.863 2°46.557 8.4 321 3.6 101810 79
2004-01-21 08:12 51°11.782 2°46.171 9 316 3.7 101810 78
2004-01-21 08:13 51°11.702 2°45.79 8.1 323 3.7 101810 78
2004-01-21 08:14 51°11.623 2°45.411 7.7 322 3.7 101810 78
2004-01-21 08:15 51°11.546 2°45.037 6.8 318 3.7 101820 78
2004-01-21 08:16 51°11.469 2°44.657 7.9 314 3.7 101810 79
2004-01-21 08:17 51°11.398 2°44.274 7.9 310 3.8 101820 79
2004-01-21 08:18 51°11.327 2°43.891 7.8 42 3.8 101820 79
2004-01-21 08:19 51°11.249 2°43.514 7.1 319 3.8 101820 79
2004-01-21 08:20 51°11.169 2°43.134 7.8 317 3.8 101820 79
2004-01-21 08:21 51°11.09 2°42.768 7.5 227 3.8 101810 79
2004-01-21 08:22 51°11.023 2°42.387 5.2 302 3.8 101790 79
2004-01-21 08:23 51°11.109 2°42.209 5.7 122 3.8 101830 79
2004-01-21 08:24 51°11.163 2°42.232 5.8 115 3.8 101830 80
2004-01-21 08:25 51°11.175 2°42.225 5.6 125 3.8 101840 80
2004-01-21 08:26 51°11.185 2°42.216 5.5 114 3.9 101840 80
2004-01-21 08:27 51°11.178 2°42.193 6.6 124 4 101850 81
2004-01-21 08:28 51°11.156 2°42.156 7 133 3.9 101840 80
2004-01-21 08:29 51°11.157 2°42.137 5.6 135 3.8 101850 80
2004-01-21 08:30 51°11.166 2°42.126 6.7 126 3.8 101850 80
2004-01-21 08:31 51°11.174 2°42.118 6 110 3.8 101850 80
2004-01-21 08:32 51°11.179 2°42.117 7.2 117 3.8 101850 80
2004-01-21 08:33 51°11.186 2°42.119 5.8 101 3.8 101850 80
2004-01-21 08:34 51°11.193 2°42.126 7.6 88 3.9 101850 80
2004-01-21 08:35 51°11.2 2°42.134 6.8 93 3.8 101850 79
2004-01-21 08:36 51°11.206 2°42.145 5.7 80 3.8 101850 79
2004-01-21 08:37 51°11.209 2°42.164 7 56 3.8 101850 79
2004-01-21 08:38 51°11.165 2°42.221 8.4 334 3.8 101850 79
2004-01-21 08:39 51°11.099 2°42.122 5.2 279 3.8 101850 79
2004-01-21 08:40 51°11.051 2°41.816 7.2 310 3.9 101780 80
2004-01-21 08:41 51°10.994 2°41.434 8 228 3.9 101790 79
2004-01-21 08:42 51°10.938 2°41.061 6.8 312 3.9 101790 79
2004-01-21 08:43 51°10.882 2°40.701 7.8 226 3.9 101800 79
2004-01-21 08:44 51°10.819 2°40.329 9.3 228 3.9 101790 79
2004-01-21 08:45 51°10.758 2°39.963 7.1 315 3.9 101790 79
2004-01-21 08:46 51°10.693 2°39.577 8 308 3.9 101790 78
2004-01-21 08:47 51°10.632 2°39.209 7.1 302 3.9 101790 78
2004-01-21 08:48 51°10.568 2°38.836 8.2 302 3.9 101780 77
2004-01-21 08:49 51°10.506 2°38.46 6.9 303 3.9 101780 77
2004-01-21 08:50 51°10.438 2°38.095 8 312 3.9 101780 77
2004-01-21 08:51 51°10.368 2°37.734 8.4 309 3.9 101780 77
2004-01-21 08:52 51°10.298 2°37.368 8.7 312 4 101790 78
2004-01-21 08:53 51°10.232 2°37.015 8.5 310 4 101780 77
2004-01-21 08:54 51°10.163 2°36.651 9.4 301 4 101780 77
2004-01-21 08:55 51°10.096 2°36.298 9 299 4 101770 77
2004-01-21 08:56 51°10.11 2°35.933 2.8 282 3.9 101790 77
2004-01-21 08:57 51°10.25 2°35.657 0.5 264 4 101800 77
2004-01-21 08:58 51°10.466 2°35.589 7 92 4 101790 77
2004-01-21 08:59 51°10.667 2°35.72 9.1 66 4 101770 77
2004-01-21 09:00 51°10.852 2°35.895 8 72 4 101770 77
2004-01-21 09:01 51°11.077 2°36.111 9.7 64 4 101770 77
2004-01-21 09:02 51°11.298 2°36.327 9.5 60 4 101770 76
2004-01-21 09:03 51°11.487 2°36.513 8.9 71 4 101780 76
2004-01-21 09:04 51°11.673 2°36.696 8 71 4.1 101790 77
2004-01-21 09:05 51°11.865 2°36.885 8.5 75 4 101780 76
2004-01-21 09:06 51°12.051 2°37.069 8.9 73 4 101780 76
2004-01-21 09:07 51°12.24 2°37.254 7.8 70 4 101790 76
2004-01-21 09:08 51°12.433 2°37.442 8.2 78 4 101780 76
2004-01-21 09:09 51°12.619 2°37.623 8 74 4 101780 76
2004-01-21 09:10 51°12.809 2°37.809 8.1 76 4 101790 76
2004-01-21 09:11 51°12.999 2°37.994 8.4 73 4 101780 75
2004-01-21 09:16 51°13.995 2°38.808 3.5 101 4.2 101790 75
2004-01-21 09:17 51°14.203 2°38.701 1.8 105 4.2 101810 75
2004-01-21 09:18 51°14.413 2°38.58 1.3 103 4.2 101810 75
2004-01-21 09:19 51°14.611 2°38.448 2.3 112 4.2 101810 76
2004-01-21 09:20 51°14.822 2°38.303 2.5 104 4.2 101810 76
2004-01-21 09:21 51°15.021 2°38.159 2.5 108 4.2 101810 76
2004-01-21 09:22 51°15.213 2°38.008 1.1 122 4.2 101810 76
2004-01-21 09:23 51°15.437 2°37.824 2.5 70 4.2 101820 76
2004-01-21 09:24 51°15.643 2°37.658 1.9 97 4.3 101820 77
2004-01-21 09:29 51°16.531 2°36.908 1.7 180 4.3 101850 78
2004-01-21 09:30 51°16.6 2°36.776 5.3 245 4.3 101880 77
2004-01-21 09:31 51°16.601 2°36.75 8.6 226 4.2 101860 77
2004-01-21 09:32 51°16.597 2°36.76 8.2 222 4.2 101870 77
2004-01-21 09:33 51°16.596 2°36.754 7 234 4.2 101860 78
2004-01-21 09:34 51°16.597 2°36.741 7.6 240 4.2 101860 77
2004-01-21 09:35 51°16.596 2°36.723 7.3 244 4.2 101860 77
2004-01-21 09:36 51°16.596 2°36.711 5.9 248 4.2 101860 78
2004-01-21 09:37 51°16.6 2°36.722 6.9 241 4.3 101860 78
2004-01-21 09:38 51°16.603 2°36.743 7.7 228 4.2 101870 77
2004-01-21 09:39 51°16.605 2°36.75 7.5 226 4.2 101870 78
2004-01-21 09:40 51°16.608 2°36.748 7.7 235 4.2 101870 77
2004-01-21 09:41 51°16.61 2°36.739 6.8 244 4.2 101870 77
2004-01-21 09:42 51°16.611 2°36.727 5.4 256 4.2 101880 77
2004-01-21 09:43 51°16.599 2°36.653 7.5 268 4.2 101890 78
2004-01-21 09:44 51°16.619 2°36.399 3.9 277 4.3 101880 78
2004-01-21 09:45 51°16.727 2°36.082 3.7 297 4.3 101890 78
2004-01-21 09:46 51°16.842 2°35.774 2.6 290 4.3 101880 78
2004-01-21 09:47 51°16.991 2°35.486 1.1 258 4.2 101890 77
2004-01-21 09:48 51°17.145 2°35.237 0.6 234 4.2 101880 77
2004-01-21 09:49 51°17.296 2°34.999 1.4 259 4.2 101880 78
2004-01-21 09:50 51°17.462 2°34.743 2 259 4.3 101880 77
2004-01-21 09:51 51°17.614 2°34.511 2.8 298 4.2 101880 77
2004-01-21 09:52 51°17.782 2°34.247 2.9 261 4.3 101880 77
2004-01-21 09:53 51°17.95 2°33.989 2.5 261 4.3 101880 77
2004-01-21 09:54 51°18.108 2°33.74 3.2 285 4.3 101890 76
2004-01-21 09:55 51°18.257 2°33.454 3.5 272 4.3 101880 77
2004-01-21 09:56 51°18.398 2°33.176 5.1 272 4.3 101890 76
2004-01-21 10:04 51°19.5 2°30.994 3.7 286 4.5 101850 77
2004-01-21 10:10 51°19.973 2°30.029 5.9 261 4.7 101880 77
2004-01-21 10:11 51°20.017 2°29.944 3.8 199 4.6 101900 76
2004-01-21 10:12 51°20.034 2°29.971 8.5 154 4.7 101900 76
2004-01-21 10:13 51°20.049 2°30.001 8.9 138 4.6 101890 75
2004-01-21 10:14 51°20.063 2°30.033 8.1 132 4.6 101890 75
2004-01-21 10:15 51°20.076 2°30.072 7.2 118 4.5 101880 76
2004-01-21 10:16 51°20.088 2°30.11 7.9 114 4.6 101880 76
2004-01-21 10:17 51°20.107 2°30.162 8.3 129 4.5 101890 76
2004-01-21 10:18 51°20.151 2°30.213 6.1 160 4.5 101890 76
2004-01-21 10:19 51°20.213 2°30.206 6 139 4.7 101890 77
2004-01-21 10:20 51°20.316 2°30.318 8.5 96 4.7 101870 76
2004-01-21 10:21 51°20.447 2°30.536 8.8 69 4.6 101850 75
2004-01-21 10:22 51°20.577 2°30.864 11.7 56 4.6 101830 76
2004-01-21 10:24 51°20.672 2°31.243 12.7 46 4.6 101810 76
2004-01-21 10:24 51°20.743 2°31.619 12.8 50 4.5 101810 76
2004-01-21 10:25 51°20.82 2°31.995 11.9 55 4.5 101810 76
2004-01-21 10:26 51°20.899 2°32.365 12.4 54 4.5 101810 76
2004-01-21 10:27 51°20.98 2°32.729 12.7 56 4.4 101810 75
2004-01-21 10:29 51°21.062 2°33.1 11.9 60 4.4 101820 76
2004-01-21 10:29 51°21.141 2°33.46 10.9 51 4.4 101830 76
2004-01-21 10:31 51°21.224 2°33.83 12.6 56 4.4 101820 77
2004-01-21 10:31 51°21.303 2°34.189 11.8 62 4.4 101820 76
2004-01-21 10:33 51°21.388 2°34.564 11.4 62 4.4 101820 76
2004-01-21 10:34 51°21.474 2°34.937 11.1 54 4.5 101820 77
2004-01-21 10:34 51°21.558 2°35.303 10.3 57 4.5 101820 77
2004-01-21 10:35 51°21.642 2°35.676 12 53 4.5 101830 77
2004-01-21 10:36 51°21.727 2°36.049 11.1 53 4.5 101830 78
2004-01-21 10:37 51°21.823 2°36.41 9.5 62 4.4 101820 78
2004-01-21 10:38 51°21.984 2°36.712 9.9 63 4.5 101840 79
2004-01-21 10:39 51°22.137 2°37.028 9.1 60 4.4 101830 79
2004-01-21 10:40 51°22.292 2°37.339 8.4 68 4.4 101840 79
2004-01-21 10:42 51°22.453 2°37.65 8.6 64 4.4 101840 80
2004-01-21 10:42 51°22.637 2°37.907 5.6 71 4.4 101840 80
2004-01-21 10:43 51°22.822 2°38.17 6.1 70 4.4 101830 80
2004-01-21 10:45 51°23.001 2°38.449 7.5 70 4.4 101840 81
2004-01-21 10:45 51°23.176 2°38.72 7.9 66 4.4 101830 81
2004-01-21 10:46 51°23.335 2°39.027 7.6 69 4.3 101830 81
2004-01-21 10:47 51°23.471 2°39.368 10.9 51 4.3 101820 81
2004-01-21 10:49 51°23.591 2°39.735 9.7 59 4.3 101820 81
2004-01-21 10:50 51°23.706 2°40.098 9.5 56 4.3 101830 81
2004-01-21 10:50 51°23.81 2°40.461 10.3 58 4.3 101820 81
2004-01-21 10:51 51°23.919 2°40.831 10.4 54 4.3 101830 81
2004-01-21 10:53 51°24.031 2°41.207 9 53 4.3 101820 81
2004-01-21 10:53 51°24.141 2°41.57 10 54 4.2 101820 81
2004-01-21 10:54 51°24.251 2°41.939 10.8 54 4.2 101820 81
2004-01-21 10:55 51°24.364 2°42.309 11.7 57 4.2 101820 81
2004-01-21 10:56 51°24.474 2°42.681 9.3 60 4.2 101810 81
2004-01-21 10:58 51°24.588 2°43.06 11 59 4.2 101810 81
2004-01-21 10:58 51°24.697 2°43.425 10.1 53 4.2 101820 81
2004-01-21 10:59 51°24.808 2°43.798 10.3 56 4.2 101820 81
2004-01-21 11:00 51°24.919 2°44.172 9.9 58 4.2 101830 81
2004-01-21 11:01 51°25.02 2°44.553 9.6 61 4.3 101830 81
2004-01-21 11:02 51°25.12 2°44.931 9.9 52 4.2 101820 80
2004-01-21 11:03 51°25.22 2°45.311 8.6 56 4.2 101830 80
2004-01-21 11:05 51°25.331 2°45.691 9.2 58 4.2 101820 80
2004-01-21 11:06 51°25.443 2°46.063 8.3 60 4.2 101830 79
2004-01-21 11:06 51°25.554 2°46.429 7.9 60 4.3 101840 80
2004-01-21 11:07 51°25.667 2°46.799 9.2 56 4.3 101830 80
2004-01-21 11:08 51°25.779 2°47.172 9.6 61 4.3 101830 79
2004-01-21 11:09 51°25.894 2°47.544 8.9 55 4.3 101840 79
2004-01-21 11:10 51°25.998 2°47.924 9.1 53 4.4 101840 79
2004-01-21 11:11 51°26.07 2°48.246 6.2 74 4.3 101880 79
2004-01-21 11:12 51°26.097 2°48.498 9 26 4.4 101880 79
2004-01-21 11:13 51°26.018 2°48.547 8.4 330 4.4 101880 79
2004-01-21 11:14 51°26 2°48.509 7.3 292 4.4 101900 79
2004-01-21 11:16 51°26.017 2°48.507 7.2 278 4.4 101900 78
2004-01-21 11:17 51°26.033 2°48.509 6.7 297 4.4 101890 79
2004-01-21 11:17 51°26.046 2°48.516 7 314 4.4 101900 79
2004-01-21 11:18 51°26.058 2°48.527 6.8 309 4.4 101900 78
2004-01-21 11:20 51°26.07 2°48.542 6.4 227 4.4 101900 78
2004-01-21 11:20 51°26.081 2°48.559 6.9 227 4.4 101900 78
2004-01-21 11:22 51°26.093 2°48.577 6.5 317 4.4 101900 77
2004-01-21 11:23 51°26.104 2°48.597 6.2 319 4.3 101900 77
2004-01-21 11:23 51°26.084 2°48.615 6.7 8 4.4 101890 77
2004-01-21 11:24 51°26.064 2°48.77 8.1 60 4.4 101880 77
2004-01-21 11:25 51°26.123 2°49.109 10.2 42 4.4 101850 77
2004-01-21 11:26 51°26.183 2°49.512 10.9 45 4.4 101840 77
2004-01-21 11:27 51°26.24 2°49.916 10.2 41 4.4 101840 77
2004-01-21 11:29 51°26.297 2°50.328 10.5 42 4.4 101840 76
2004-01-21 11:29 51°26.348 2°50.727 9.9 42 4.4 101850 77
2004-01-21 11:31 51°26.406 2°51.141 11 42 4.4 101850 77
2004-01-21 11:32 51°26.461 2°51.545 11.7 43 4.4 101850 76
2004-01-21 11:32 51°26.516 2°51.942 11 41 4.4 101860 76
2004-01-21 11:33 51°26.57 2°52.346 11.3 37 4.5 101860 76
2004-01-21 11:34 51°26.624 2°52.75 9.7 34 4.5 101860 76
2004-01-21 11:35 51°26.679 2°53.154 10 39 4.5 101860 76
2004-01-21 11:36 51°26.733 2°53.555 10.1 39 4.5 101860 76
2004-01-21 11:38 51°26.789 2°53.965 10.5 41 4.4 101850 75
2004-01-21 11:38 51°26.85 2°54.357 11.5 36 4.4 101850 75
2004-01-21 11:40 51°26.911 2°54.764 10.4 35 4.4 101860 74
2004-01-21 11:41 51°26.971 2°55.162 11.4 36 4.4 101850 73
2004-01-21 11:42 51°27.031 2°55.56 10.7 45 4.4 101860 72
2004-01-21 11:42 51°27.087 2°55.949 10.9 41 4.4 101840 72
2004-01-21 11:44 51°27.165 2°56.465 11 41 4.4 101860 71
2004-01-21 11:45 51°27.228 2°56.861 10.9 42 4.4 101850 70
2004-01-21 11:46 51°27.298 2°57.254 11.3 39 4.4 101860 70
2004-01-21 11:47 51°27.366 2°57.639 10.5 41 4.5 101860 70
2004-01-21 11:48 51°27.433 2°58.038 11.1 36 4.5 101860 69
2004-01-21 11:49 51°27.5 2°58.432 10.3 39 4.5 101860 70
2004-01-21 11:50 51°27.564 2°58.82 10.8 39 4.5 101860 69
2004-01-21 11:51 51°27.629 2°59.22 11.4 41 4.5 101860 69
2004-01-21 11:52 51°27.693 2°59.597 11 41 4.5 101860 68
2004-01-21 11:53 51°27.765 2°59.998 10.8 37 4.5 101860 67
2004-01-21 11:54 51°27.838 3°0.386 9.7 30 4.5 101870 67
2004-01-21 11:55 51°27.911 3°0.774 9.9 30 4.6 101870 68
2004-01-21 11:56 51°27.984 3°1.165 10.2 31 4.6 101870 69
2004-01-21 11:57 51°28.056 3°1.556 11 32 4.5 101870 69
2004-01-21 11:58 51°28.127 3°1.948 11.8 28 4.5 101870 70
2004-01-21 11:59 51°28.195 3°2.343 10.8 26 4.5 101870 70
2004-01-21 12:00 51°28.262 3°2.739 11 29 4.5 101870 70
2004-01-21 12:01 51°28.318 3°3.058 9.5 38 4.4 101900 69
2004-01-21 12:02 51°28.37 3°3.336 9.3 40 4.4 101910 68
2004-01-21 12:03 51°28.323 3°3.49 7.2 42 4.4 101920 68
2004-01-21 12:04 51°28.297 3°3.44 4.3 257 4.5 101930 69
2004-01-21 12:05 51°28.318 3°3.432 5.1 230 4.4 101940 69
2004-01-21 12:06 51°28.34 3°3.427 4.9 240 4.4 101940 68
2004-01-21 12:07 51°28.359 3°3.427 6.5 267 4.4 101940 68
2004-01-21 12:08 51°28.371 3°3.434 4.5 281 4.4 101940 69
2004-01-21 12:09 51°28.381 3°3.444 6.1 288 4.4 101940 69
2004-01-21 12:10 51°28.389 3°3.458 6 301 4.4 101950 69
2004-01-21 12:11 51°28.397 3°3.477 4.3 315 4.4 101940 69
2004-01-21 12:12 51°28.404 3°3.502 5 313 4.5 101940 69
2004-01-21 12:13 51°28.411 3°3.531 5.9 322 4.5 101940 70
2004-01-21 12:14 51°28.42 3°3.564 5.6 348 4.5 101940 69
2004-01-21 12:15 51°28.43 3°3.603 4.8 359 4.5 101940 69
2004-01-21 12:16 51°28.439 3°3.648 5.5 342 4.5 101940 68
2004-01-21 12:17 51°28.444 3°3.687 6.2 315 4.5 101940 69
2004-01-21 12:18 51°28.447 3°3.707 5.5 285 4.5 101930 69
2004-01-21 12:19 51°28.446 3°3.713 5.8 285 4.4 101930 68
2004-01-21 12:20 51°28.413 3°3.668 6.7 308 4.4 101940 69
2004-01-21 12:21 51°28.353 3°3.581 6.2 307 4.4 101920 69
2004-01-21 12:22 51°28.296 3°3.508 6 296 4.5 101940 69
2004-01-21 12:23 51°28.296 3°3.483 5.6 270 4.5 101950 69
2004-01-21 12:24 51°28.302 3°3.474 4.9 284 4.4 101940 68
2004-01-21 12:25 51°28.304 3°3.476 4.9 299 4.5 101950 68
2004-01-21 12:26 51°28.305 3°3.482 5.2 295 4.5 101950 69
2004-01-21 12:27 51°28.306 3°3.491 5.3 296 4.5 101940 69
2004-01-21 12:28 51°28.293 3°3.466 4.5 262 4.5 101930 69
2004-01-21 12:29 51°28.372 3°3.385 4.3 81 4.5 101930 68
2004-01-21 12:30 51°28.446 3°3.545 8.6 16 4.5 101920 68
2004-01-21 12:31 51°28.371 3°3.84 11.4 4 4.5 101910 69
2004-01-21 12:32 51°28.229 3°4.141 11.3 8 4.6 101900 69
2004-01-21 12:33 51°28.095 3°4.444 12.4 6 4.5 101910 69
2004-01-21 12:34 51°27.957 3°4.756 11.9 4 4.5 101910 69
2004-01-21 12:35 51°27.826 3°5.066 12.2 3 4.5 101910 69
2004-01-21 12:36 51°27.693 3°5.372 12 8 4.5 101920 69
2004-01-21 12:37 51°27.56 3°5.677 11.9 7 4.5 101910 68
2004-01-21 12:38 51°27.428 3°5.984 11.3 4 4.5 101910 69
2004-01-21 12:39 51°27.303 3°6.301 12.2 4 4.4 101910 69
2004-01-21 12:40 51°27.181 3°6.611 11.7 8 4.4 101910 68
2004-01-21 12:41 51°27.003 3°7.045 11.7 8 4.4 101920 68
2004-01-21 12:42 51°26.877 3°7.353 11.7 6 4.4 101920 69
2004-01-21 12:43 51°26.76 3°7.674 11.9 6 4.4 101920 68
2004-01-21 12:44 51°26.66 3°7.988 10.6 12 4.4 101930 67
2004-01-21 12:45 51°26.575 3°8.256 8.3 4 4.3 101960 67
2004-01-21 12:46 51°26.499 3°8.29 5.5 307 4.4 101950 68
2004-01-21 12:47 51°26.477 3°8.246 5.3 274 4.4 101950 67
2004-01-21 12:48 51°26.479 3°8.233 4.7 282 4.4 101960 67
2004-01-21 12:49 51°26.478 3°8.222 4.4 285 4.4 101960 67
2004-01-21 12:50 51°26.475 3°8.217 4.9 290 4.4 101960 67
2004-01-21 12:52 51°26.472 3°8.219 4.3 302 4.4 101950 67
2004-01-21 12:53 51°26.47 3°8.225 4.1 302 4.4 101960 67
2004-01-21 12:54 51°26.449 3°8.214 5.6 316 4.5 101930 68
2004-01-21 12:55 51°26.372 3°8.376 9.8 12 4.5 101920 67
2004-01-21 12:56 51°26.306 3°8.704 11.2 15 4.4 101930 67
2004-01-21 12:57 51°26.227 3°9.069 10.9 13 4.4 101900 67
2004-01-21 12:58 51°26.148 3°9.42 10.8 19 4.4 101900 67
2004-01-21 12:59 51°26.066 3°9.768 11.8 14 4.5 101900 67
2004-01-21 13:00 51°25.986 3°10.103 11.5 16 4.5 101900 66
2004-01-21 13:01 51°25.886 3°10.518 10.9 12 4.5 101900 66
2004-01-21 13:03 51°25.667 3°10.909 11.9 5 4.5 101900 65
2004-01-21 13:04 51°25.502 3°11.158 11.4 3 4.5 101900 65
2004-01-21 13:05 51°25.336 3°11.408 11.8 6 4.5 101900 64
2004-01-21 13:06 51°25.206 3°11.7 11.3 17 4.5 101900 65
2004-01-21 13:07 51°25.216 3°12.206 11.1 25 4.6 101890 65
2004-01-21 13:08 51°25.259 3°12.577 10.8 26 4.6 101900 64
2004-01-21 13:09 51°25.307 3°12.987 10.5 23 4.6 101890 65
2004-01-21 13:10 51°25.348 3°13.359 10.8 28 4.6 101900 65
2004-01-21 13:11 51°25.388 3°13.75 10.4 23 4.6 101900 64
2004-01-21 13:12 51°25.434 3°14.114 11.1 25 4.6 101910 65
2004-01-21 13:13 51°25.484 3°14.491 10.3 27 4.6 101910 65
2004-01-21 13:14 51°25.535 3°14.878 10.5 25 4.5 101900 64
2004-01-21 13:15 51°25.587 3°15.254 10.8 27 4.5 101910 64
2004-01-21 13:16 51°25.645 3°15.692 9.7 25 4.5 101910 64
2004-01-21 13:17 51°25.697 3°16.067 10.2 25 4.5 101920 63
2004-01-21 13:18 51°25.75 3°16.469 10.8 31 4.5 101910 63
2004-01-21 13:19 51°25.8 3°16.844 10.4 29 4.4 101910 63
2004-01-21 13:20 51°25.849 3°17.22 10 26 4.5 101910 63
2004-01-21 13:22 51°25.922 3°17.652 6.6 41 4.5 101950 64
2004-01-21 13:23 51°25.905 3°17.828 5.9 343 4.4 101940 64
2004-01-21 13:24 51°25.876 3°17.843 4.1 294 4.4 101940 64
2004-01-21 13:25 51°25.878 3°17.841 4.8 282 4.4 101970 64
2004-01-21 13:26 51°25.88 3°17.828 4.3 289 4.4 101960 64
2004-01-21 13:27 51°25.88 3°17.82 4.2 302 4.4 101960 64
2004-01-21 13:28 51°25.882 3°17.817 3.7 307 4.4 101960 64
2004-01-21 13:29 51°25.885 3°17.817 3.9 312 4.4 101960 64
2004-01-21 13:30 51°25.871 3°17.818 5.2 328 4.4 101960 65
2004-01-21 13:31 51°25.786 3°17.78 8.3 331 4.5 101950 66
2004-01-21 13:32 51°25.626 3°17.589 8.9 332 4.5 101910 65
2004-01-21 13:34 51°25.409 3°17.285 9.2 331 4.5 101900 65
2004-01-21 13:35 51°25.255 3°17.045 8.1 330 4.5 101910 64
2004-01-21 13:36 51°25.051 3°16.734 8.6 324 4.5 101900 64
2004-01-21 13:37 51°24.899 3°16.505 9.1 333 4.5 101910 64
2004-01-21 13:38 51°24.744 3°16.269 9.7 328 4.5 101900 64
2004-01-21 13:39 51°24.546 3°15.965 8.5 331 4.4 101900 63
2004-01-21 13:40 51°24.385 3°15.72 8.5 339 4.5 101900 64
2004-01-21 13:41 51°24.223 3°15.495 9.2 333 4.5 101900 64
2004-01-21 13:42 51°24.049 3°15.249 9.3 335 4.5 101910 64
2004-01-21 13:43 51°23.889 3°15.027 9.4 331 4.5 101900 63
2004-01-21 13:44 51°23.729 3°14.798 8.4 326 4.5 101910 64
2004-01-21 13:45 51°23.621 3°14.514 7.2 320 4.5 101910 63
2004-01-21 13:46 51°23.521 3°14.224 7.9 323 4.5 101920 63
2004-01-21 13:47 51°23.393 3°13.955 9.4 334 4.6 101910 64
2004-01-21 13:48 51°23.223 3°13.742 9.5 336 4.6 101920 64
2004-01-21 13:49 51°23.049 3°13.555 10.5 338 4.6 101910 63
2004-01-21 13:50 51°22.823 3°13.407 11.1 337 4.6 101930 64
2004-01-21 13:51 51°22.66 3°13.315 6.8 312 4.6 101930 64
2004-01-21 13:52 51°22.636 3°13.232 5.1 274 4.6 101960 64
2004-01-21 13:54 51°22.642 3°13.24 4.7 263 4.6 101970 65
2004-01-21 13:55 51°22.646 3°13.246 6.4 270 4.6 101970 65
2004-01-21 13:56 51°22.648 3°13.249 5.4 287 4.6 101970 65
2004-01-21 13:57 51°22.646 3°13.251 5.8 288 4.6 101980 64
2004-01-21 13:58 51°22.643 3°13.251 5.6 291 4.6 101980 64
2004-01-21 13:59 51°22.635 3°13.246 5.4 290 4.6 101970 64
2004-01-21 14:00 51°22.592 3°13.077 6.4 43 4.6 101930 64
2004-01-21 14:01 51°22.537 3°12.756 7.4 320 4.6 101970 64
2004-01-21 14:02 51°22.485 3°12.345 7 329 4.6 101920 64
2004-01-21 14:03 51°22.425 3°11.826 6.3 323 4.6 101920 64
2004-01-21 14:04 51°22.39 3°11.474 6 330 4.6 101920 64
2004-01-21 14:05 51°22.356 3°11.117 6.2 321 4.6 101920 64
2004-01-21 14:06 51°22.319 3°10.765 6.3 323 4.6 101920 65
2004-01-21 14:07 51°22.289 3°10.412 6.8 315 4.6 101920 65
2004-01-21 14:08 51°22.257 3°10.053 5.6 320 4.6 101910 64
2004-01-21 14:09 51°22.227 3°9.704 6.7 324 4.6 101920 64
2004-01-21 14:10 51°22.197 3°9.351 7.7 317 4.7 101910 65
2004-01-21 14:12 51°22.157 3°8.909 7.1 321 4.7 101920 65
2004-01-21 14:13 51°22.125 3°8.559 6.9 315 4.7 101920 66
2004-01-21 14:14 51°22.091 3°8.208 6.6 324 4.8 101920 66
2004-01-21 14:15 51°22.04 3°7.865 7.5 318 4.7 101920 66
2004-01-21 14:16 51°21.988 3°7.521 7.8 317 4.7 101910 66
2004-01-21 14:17 51°21.916 3°7.132 8.1 315 4.7 101900 64
2004-01-21 14:18 51°21.854 3°6.799 7.5 320 4.7 101920 64
2004-01-21 14:19 51°21.792 3°6.458 7.6 324 4.7 101920 64
2004-01-21 14:20 51°21.725 3°6.094 7.5 329 4.7 101920 64
2004-01-21 14:21 51°21.657 3°5.757 7.7 320 4.7 101920 64
2004-01-21 14:22 51°21.589 3°5.419 7 324 4.7 101930 64
2004-01-21 14:23 51°21.52 3°5.081 6.6 327 4.7 101920 64
2004-01-21 14:24 51°21.439 3°4.684 6.5 326 4.7 101920 64
2004-01-21 14:25 51°21.373 3°4.349 8.6 334 4.8 101920 65
2004-01-21 14:26 51°21.306 3°4.01 7.9 325 4.8 101920 64
2004-01-21 14:27 51°21.239 3°3.677 7.4 325 4.8 101930 64
2004-01-21 14:28 51°21.172 3°3.345 7.7 328 4.8 101920 64
2004-01-21 14:29 51°21.105 3°3.006 8.2 321 4.8 101930 64
2004-01-21 14:30 51°21.034 3°2.659 8.3 321 4.8 101930 64
2004-01-21 14:31 51°20.965 3°2.319 7.2 328 4.8 101920 65
2004-01-21 14:32 51°20.894 3°1.975 7.6 333 4.9 101930 65
2004-01-21 14:33 51°20.822 3°1.63 7.7 326 4.9 101930 66
2004-01-21 14:34 51°20.752 3°1.284 8.4 332 4.9 101930 65
2004-01-21 14:35 51°20.679 3°0.932 8.2 332 4.8 101930 65
2004-01-21 14:36 51°20.61 3°0.589 8.6 331 4.9 101930 65
2004-01-21 14:37 51°20.538 3°0.243 7.9 330 4.9 101940 66
2004-01-21 14:38 51°20.458 2°59.903 7.4 337 4.9 101930 66
2004-01-21 14:39 51°20.353 2°59.448 8.5 336 4.9 101920 67
2004-01-21 14:40 51°20.275 2°59.106 9.1 325 4.9 101930 66
2004-01-21 14:41 51°20.195 2°58.761 8 332 4.9 101930 66
2004-01-21 14:42 51°20.118 2°58.419 7.5 336 4.9 101930 66
2004-01-21 14:43 51°20.04 2°58.078 8.1 328 4.9 101930 65
2004-01-21 14:44 51°19.966 2°57.76 7.3 328 4.9 101930 66
2004-01-21 14:45 51°19.883 2°57.401 8.7 328 4.9 101930 65
2004-01-21 14:46 51°19.805 2°57.064 7.5 322 4.9 101940 65
2004-01-21 14:48 51°19.718 2°56.671 8.7 323 4.9 101930 65
2004-01-21 14:49 51°19.632 2°56.289 8.3 319 4.9 101930 64
2004-01-21 14:50 51°19.556 2°55.947 7.7 323 4.9 101930 64
2004-01-21 14:51 51°19.477 2°55.595 8.4 328 5 101930 64
2004-01-21 14:52 51°19.399 2°55.249 7.8 323 5 101920 64
2004-01-21 14:53 51°19.322 2°54.902 7.7 314 5 101930 64
2004-01-21 14:54 51°19.244 2°54.555 8.5 321 5 101930 64
2004-01-21 14:55 51°19.167 2°54.209 7.8 326 5 101930 64
2004-01-21 14:56 51°19.051 2°53.679 8.2 318 5 101930 65
2004-01-21 14:57 51°18.974 2°53.334 8.2 317 5 101940 64
2004-01-21 14:58 51°18.898 2°52.988 7.7 322 5 101940 64
2004-01-21 14:59 51°18.822 2°52.644 7.8 324 5 101940 64
2004-01-21 15:00 51°18.746 2°52.298 7.1 324 5 101930 65
2004-01-21 15:01 51°18.659 2°51.863 7.5 321 5 101930 65
2004-01-21 15:02 51°18.603 2°51.575 5.8 304 5.1 101970 65
2004-01-21 15:03 51°18.561 2°51.386 6.5 294 5.1 101970 66
2004-01-21 15:04 51°18.52 2°51.221 5.8 302 5.1 101970 66
2004-01-21 15:05 51°18.501 2°51.084 6.6 269 5.1 101970 65
2004-01-21 15:06 51°18.5 2°51.007 3.7 252 5.1 101960 66
2004-01-21 15:08 51°18.514 2°51.002 3.9 257 5.1 101980 66
2004-01-21 15:09 51°18.527 2°50.993 3.9 256 5.1 101980 65
2004-01-21 15:10 51°18.538 2°50.982 4.8 258 5.1 101970 65
2004-01-21 15:11 51°18.544 2°50.963 5 290 5.1 101970 66
2004-01-21 15:12 51°18.541 2°50.939 5.7 292 5.2 101970 67
2004-01-21 15:13 51°18.509 2°50.926 9 352 5.1 101950 67
2004-01-21 15:14 51°18.379 2°51.084 12.2 6 5.1 101920 65
2004-01-21 15:15 51°18.213 2°51.293 12.9 8 5.1 101920 65
2004-01-21 15:16 51°18.037 2°51.506 13.2 8 5.2 101930 66
2004-01-21 15:17 51°17.854 2°51.725 13.4 6 5.1 101930 66
2004-01-21 15:18 51°17.683 2°51.928 13.6 4 5.1 101930 65
2004-01-21 15:19 51°17.497 2°52.146 13.2 6 5.1 101930 65
2004-01-21 15:20 51°17.325 2°52.37 14.3 9 5.1 101930 64
2004-01-21 15:21 51°17.172 2°52.608 12.3 12 5.1 101930 65
2004-01-21 15:22 51°17.014 2°52.864 13.4 8 5.1 101930 65
2004-01-21 15:23 51°16.871 2°53.12 12.3 12 5.1 101930 64
2004-01-21 15:24 51°16.72 2°53.396 13.4 14 5.1 101930 63
2004-01-21 15:25 51°16.573 2°53.676 13.2 17 5 101930 63
2004-01-21 15:26 51°16.445 2°53.963 11.2 26 5 101930 63
2004-01-21 15:27 51°16.369 2°54.144 7.9 2 5 101980 64
2004-01-21 15:28 51°16.298 2°54.191 7.9 356 5 101980 64
2004-01-21 15:29 51°16.233 2°54.243 7.7 17 5 101980 63
2004-01-21 15:30 51°16.209 2°54.264 6.2 343 5 101970 63
2004-01-21 15:31 51°16.21 2°54.256 6 311 5 101990 63
2004-01-21 15:32 51°16.217 2°54.246 5.2 281 5 101980 64
2004-01-21 15:33 51°16.227 2°54.243 6.2 265 5 101990 64
2004-01-21 15:34 51°16.234 2°54.237 5 268 5 101990 65
2004-01-21 15:35 51°16.242 2°54.228 4.5 257 5.1 101990 66
2004-01-21 15:36 51°16.248 2°54.214 5 260 5 101990 64
2004-01-21 15:37 51°16.243 2°54.181 6.7 309 5 101990 66
2004-01-21 15:38 51°16.125 2°54.146 11.6 357 5 101960 65
2004-01-21 15:39 51°15.926 2°54.211 13.1 358 5 101940 65
2004-01-21 15:40 51°15.696 2°54.283 12.2 356 5 101940 65
2004-01-21 15:41 51°15.472 2°54.329 12.2 353 5 101960 65
2004-01-21 15:42 51°15.247 2°54.405 11.7 355 5 101940 65
2004-01-21 15:43 51°15.028 2°54.478 11.3 356 5 101940 65
2004-01-21 15:44 51°14.815 2°54.572 11.8   5 101940 66
2004-01-21 15:45 51°14.616 2°54.724 12.4 1 5 101950 65
2004-01-21 15:46 51°14.441 2°54.938 10 15 5 101970 66
2004-01-21 15:47 51°14.315 2°55.166 10.3 13 4.9 101970 66
2004-01-21 15:48 51°14.212 2°55.345 8.7 6 4.9 101990 66
2004-01-21 15:49 51°14.114 2°55.427 7.4 350 4.9 101990 66
2004-01-21 15:50 51°14.016 2°55.496 8 353 4.9 101990 67
2004-01-21 15:51 51°13.923 2°55.564 7.9 360 4.9 101990 66
2004-01-21 15:52 51°13.83 2°55.64 7.3 355 4.9 101990 66